Time;durP1;ratioP1;P1;durP2;ratioP2;P2;SDS_P1;SDS_P2;PMS_P1;PMS_P2;Temp;Humidity;BMP_temperature;BMP_pressure;BME280_temperature;BME280_humidity;BME280_pressure;Samples;Min_cycle;Max_cycle;Signal;HPM_P1;HPM_P2
2022/01/03 00:00:01;;;;;;;8.13;2.45;;;8.10;99.90;;;;;;4884346;29;20051;-82
2022/01/03 00:02:27;;;;;;;9.55;2.50;;;8.10;99.90;;;;;;4894633;29;20262;-83
2022/01/03 00:04:53;;;;;;;11.93;2.67;;;8.20;99.90;;;;;;4878710;29;20501;-81
2022/01/03 00:07:19;;;;;;;14.88;2.28;;;8.20;99.90;;;;;;4893863;29;20563;-84
2022/01/03 00:09:45;;;;;;;7.90;2.80;;;8.30;99.90;;;;;;4879204;29;20089;-82
2022/01/03 00:12:11;;;;;;;12.20;2.50;;;8.30;99.90;;;;;;4897644;29;20088;-83
2022/01/03 00:14:37;;;;;;;11.68;2.22;;;8.30;99.90;;;;;;4893549;29;20048;-82
2022/01/03 00:17:03;;;;;;;12.68;2.25;;;8.30;99.90;;;;;;4877962;29;20159;-84
2022/01/03 00:19:28;;;;;;;11.90;2.58;;;8.40;99.90;;;;;;4891997;29;20084;-83
2022/01/03 00:21:57;;;;;;;14.85;2.40;;;8.40;99.90;;;;;;4894584;29;20092;-82
2022/01/03 00:24:32;;;;;;;15.43;2.40;;;8.40;99.90;;;;;;4893796;29;20056;-80
2022/01/03 00:27:14;;;;;;;12.15;2.28;;;8.40;99.90;;;;;;4894334;29;20056;-83
2022/01/03 00:29:50;;;;;;;8.52;2.05;;;8.50;99.90;;;;;;4900104;29;20047;-83
2022/01/03 00:32:16;;;;;;;10.87;2.23;;;8.50;99.90;;;;;;4912831;29;20055;-83
2022/01/03 00:34:42;;;;;;;16.08;2.72;;;8.50;99.90;;;;;;4899097;29;20108;-82
2022/01/03 00:37:09;;;;;;;10.88;2.05;;;8.60;99.90;;;;;;4900886;29;20056;-83
2022/01/03 00:39:35;;;;;;;15.18;2.38;;;8.40;99.90;;;;;;4871062;29;20048;-82
2022/01/03 00:42:02;;;;;;;15.90;2.30;;;8.60;99.90;;;;;;4903467;29;20055;-82
2022/01/03 00:44:28;;;;;;;11.95;2.17;;;8.60;99.90;;;;;;4908056;29;20530;-82
2022/01/03 00:46:55;;;;;;;17.73;2.38;;;8.60;99.90;;;;;;4880024;29;20139;-82
2022/01/03 00:49:21;;;;;;;15.32;2.55;;;8.60;99.90;;;;;;4910869;29;20040;-83
2022/01/03 00:51:47;;;;;;;19.15;3.10;;;8.60;99.90;;;;;;4889662;29;20051;-83
2022/01/03 00:54:13;;;;;;;12.45;2.55;;;8.70;99.90;;;;;;4898309;29;20067;-82
2022/01/03 00:56:46;;;;;;;14.68;2.00;;;8.60;99.90;;;;;;4893047;29;20066;-82
2022/01/03 00:59:15;;;;;;;16.33;2.70;;;8.60;99.90;;;;;;4895213;29;20490;-82
2022/01/03 01:01:52;;;;;;;24.33;2.90;;;8.70;99.90;;;;;;4904016;29;20062;-82
2022/01/03 01:04:20;;;;;;;20.77;3.25;;;8.80;99.90;;;;;;4882784;29;20115;-83
2022/01/03 01:06:51;;;;;;;18.15;2.60;;;8.70;99.90;;;;;;4913122;29;20055;-82
2022/01/03 01:09:19;;;;;;;21.25;3.22;;;8.80;99.90;;;;;;4897212;29;20066;-82
2022/01/03 01:11:45;;;;;;;22.15;3.28;;;8.80;99.90;;;;;;4903769;29;20059;-82
2022/01/03 01:14:14;;;;;;;17.80;2.20;;;8.70;99.90;;;;;;4906610;29;20394;-83
2022/01/03 01:16:39;;;;;;;17.42;2.80;;;8.80;99.90;;;;;;4899933;29;20632;-82
2022/01/03 01:19:06;;;;;;;17.30;2.20;;;8.70;99.90;;;;;;4897387;29;20174;-84
2022/01/03 01:21:32;;;;;;;15.50;1.77;;;8.80;99.90;;;;;;4908571;29;20055;-83
2022/01/03 01:23:58;;;;;;;34.53;4.45;;;8.80;99.90;;;;;;4880715;29;20059;-83
2022/01/03 01:29:09;;;;;;;20.90;2.88;;;8.70;99.90;;;;;;4911005;29;20063;-82
2022/01/03 01:31:44;;;;;;;22.17;2.63;;;8.60;99.90;;;;;;4893119;29;20091;-83
2022/01/03 01:34:14;;;;;;;20.92;3.22;;;8.70;99.90;;;;;;4906365;29;20056;-83
2022/01/03 01:36:42;;;;;;;14.85;3.00;;;8.70;99.90;;;;;;4907070;29;20123;-83
2022/01/03 01:39:10;;;;;;;23.58;2.90;;;8.60;99.90;;;;;;4883908;29;20044;-84
2022/01/03 01:41:41;;;;;;;19.60;3.22;;;8.50;99.90;;;;;;4916521;29;20059;-84
2022/01/03 01:44:09;;;;;;;20.80;3.00;;;8.60;99.90;;;;;;4893623;29;20521;-83
2022/01/03 01:46:46;;;;;;;19.80;2.85;;;8.70;99.90;;;;;;4902720;29;20056;-83
2022/01/03 01:49:17;;;;;;;22.63;3.05;;;8.70;99.90;;;;;;4908141;29;20062;-83
2022/01/03 01:51:47;;;;;;;24.58;4.45;;;8.70;99.90;;;;;;4897552;29;20055;-83
2022/01/03 01:54:16;;;;;;;12.20;2.90;;;8.70;99.90;;;;;;4906587;29;20062;-83
2022/01/03 01:56:44;;;;;;;22.85;2.60;;;8.80;99.90;;;;;;4899695;29;20489;-83
2022/01/03 01:59:36;;;;;;;15.27;2.20;;;8.80;99.90;;;;;;4898092;29;20409;-83
2022/01/03 02:02:10;;;;;;;21.02;2.78;;;8.80;99.90;;;;;;4899983;29;20513;-83
2022/01/03 02:04:48;;;;;;;25.05;2.92;;;8.80;99.90;;;;;;4887774;29;20383;-84
2022/01/03 02:07:34;;;;;;;16.58;2.28;;;8.80;99.90;;;;;;4892577;29;20402;-82
2022/01/03 02:10:11;;;;;;;25.35;2.70;;;8.80;99.90;;;;;;4887467;29;20087;-83
2022/01/03 02:12:42;;;;;;;18.60;3.05;;;8.90;99.90;;;;;;4909281;29;20044;-85
2022/01/03 02:15:11;;;;;;;26.00;3.55;;;8.90;99.90;;;;;;4901703;29;20487;-82
2022/01/03 02:17:39;;;;;;;22.02;3.33;;;8.80;99.90;;;;;;4914811;29;20075;-84
2022/01/03 02:20:10;;;;;;;25.55;3.53;;;8.90;99.90;;;;;;4887773;29;20048;-83
2022/01/03 02:22:38;;;;;;;23.75;3.10;;;8.90;99.90;;;;;;4894524;29;20110;-84
2022/01/03 02:25:06;;;;;;;18.58;3.10;;;8.80;99.90;;;;;;4902815;29;20070;-83
2022/01/03 02:27:32;;;;;;;22.10;4.28;;;8.90;99.90;;;;;;4906326;29;20730;-83
2022/01/03 02:29:59;;;;;;;17.13;2.28;;;8.80;99.90;;;;;;4897418;29;20072;-84
2022/01/03 02:32:25;;;;;;;23.25;2.95;;;8.80;99.90;;;;;;4911004;29;20060;-83
2022/01/03 02:34:51;;;;;;;33.35;6.07;;;8.90;99.90;;;;;;4879140;29;20051;-83
2022/01/03 02:37:16;;;;;;;25.20;3.38;;;8.80;99.90;;;;;;4906748;29;20135;-83
2022/01/03 02:39:43;;;;;;;14.02;2.25;;;8.80;99.90;;;;;;4894933;29;20048;-83
2022/01/03 02:42:09;;;;;;;25.05;3.53;;;8.70;99.90;;;;;;4873469;29;20090;-83
2022/01/03 02:44:35;;;;;;;28.48;3.50;;;8.80;99.90;;;;;;4892705;29;20053;-84
2022/01/03 02:47:01;;;;;;;22.10;4.78;;;8.80;99.90;;;;;;4881267;29;20052;-83
2022/01/03 02:49:26;;;;;;;26.88;3.38;;;8.90;99.90;;;;;;4897613;29;20694;-83
2022/01/03 02:51:52;;;;;;;22.95;2.58;;;8.90;99.90;;;;;;4914211;29;20530;-82
2022/01/03 02:54:18;;;;;;;19.60;3.00;;;9.00;99.90;;;;;;4905050;29;20513;-84
2022/01/03 02:56:43;;;;;;;27.80;3.55;;;8.90;99.90;;;;;;4905599;29;20052;-83
2022/01/03 02:59:15;;;;;;;26.65;3.90;;;8.90;99.90;;;;;;4872186;29;20080;-82
2022/01/03 03:01:45;;;;;;;17.70;2.45;;;8.90;99.90;;;;;;4899424;29;20494;-82
2022/01/03 03:04:11;;;;;;;24.70;4.30;;;8.90;99.90;;;;;;4868780;29;20044;-82
2022/01/03 03:06:37;;;;;;;20.25;2.47;;;8.80;99.90;;;;;;4918995;29;20054;-83
2022/01/03 03:09:05;;;;;;;15.63;2.38;;;8.80;99.90;;;;;;4901399;29;20625;-83
2022/01/03 03:11:36;;;;;;;23.15;2.80;;;8.80;99.90;;;;;;4893501;29;20059;-83
2022/01/03 03:14:02;;;;;;;22.45;2.75;;;8.80;99.90;;;;;;4898132;29;20204;-83
2022/01/03 03:16:28;;;;;;;14.57;2.13;;;8.90;99.90;;;;;;4889695;29;20503;-83
2022/01/03 03:18:54;;;;;;;23.50;3.90;;;8.90;99.90;;;;;;4894768;29;20094;-84
2022/01/03 03:21:20;;;;;;;26.42;3.53;;;8.90;99.90;;;;;;4882434;29;20090;-82
2022/01/03 03:23:46;;;;;;;19.70;2.75;;;8.90;99.90;;;;;;4879102;29;20076;-85
2022/01/03 03:26:12;;;;;;;20.63;3.33;;;8.90;99.90;;;;;;4895626;29;20208;-83
2022/01/03 03:28:38;;;;;;;24.98;3.10;;;8.90;99.90;;;;;;4895021;29;20546;-83
2022/01/03 03:31:04;;;;;;;21.13;3.22;;;8.80;99.90;;;;;;4877365;29;20041;-82
2022/01/03 03:33:32;;;;;;;21.58;3.45;;;8.70;99.90;;;;;;4848603;29;20071;-82
2022/01/03 03:35:59;;;;;;;24.48;3.50;;;8.70;99.90;;;;;;4893936;29;20067;-83
2022/01/03 03:38:27;;;;;;;23.67;2.97;;;8.60;99.90;;;;;;4895058;29;20044;-83
2022/01/03 03:40:57;;;;;;;24.60;3.17;;;8.60;99.90;;;;;;4901722;29;20056;-84
2022/01/03 03:43:24;;;;;;;23.50;3.33;;;8.60;99.90;;;;;;4894874;29;20517;-83
2022/01/03 03:45:50;;;;;;;23.30;2.75;;;8.70;99.90;;;;;;4878700;29;20084;-84
2022/01/03 03:48:17;;;;;;;26.13;4.10;;;8.70;99.90;;;;;;4879359;29;20172;-84
2022/01/03 03:50:44;;;;;;;26.77;4.00;;;8.70;99.90;;;;;;4902830;29;20197;-83
2022/01/03 03:53:10;;;;;;;23.60;3.15;;;8.70;99.90;;;;;;4893959;29;20630;-83
2022/01/03 03:55:36;;;;;;;26.52;3.67;;;8.70;99.90;;;;;;4894370;29;20071;-83
2022/01/03 03:58:03;;;;;;;29.58;4.00;;;8.70;99.90;;;;;;4893681;29;20440;-83
2022/01/03 04:00:30;;;;;;;27.65;3.03;;;8.80;99.90;;;;;;4904611;29;20096;-83
2022/01/03 04:02:56;;;;;;;23.73;3.63;;;8.80;99.90;;;;;;4902176;29;20142;-82
2022/01/03 04:05:22;;;;;;;25.33;4.03;;;8.80;99.90;;;;;;4872495;29;20566;-83
2022/01/03 04:07:47;;;;;;;22.75;3.22;;;8.80;99.90;;;;;;4907527;29;20049;-84
2022/01/03 04:10:16;;;;;;;21.77;3.53;;;8.90;99.90;;;;;;4892888;29;20420;-82
2022/01/03 04:12:44;;;;;;;20.20;3.90;;;8.90;99.90;;;;;;4893122;29;20072;-83
2022/01/03 04:15:10;;;;;;;24.13;3.53;;;8.90;99.90;;;;;;4874603;29;20061;-83
2022/01/03 04:17:35;;;;;;;22.77;3.00;;;8.90;99.90;;;;;;4865483;29;20059;-84
2022/01/03 04:20:01;;;;;;;22.90;3.10;;;8.90;99.90;;;;;;4894284;29;20695;-82
2022/01/03 04:22:27;;;;;;;19.10;2.85;;;8.90;99.90;;;;;;4893717;29;20508;-83
2022/01/03 04:24:53;;;;;;;20.05;3.00;;;9.00;99.90;;;;;;4893480;29;20072;-83
2022/01/03 04:27:19;;;;;;;28.88;5.10;;;8.90;99.90;;;;;;4894102;29;20057;-83
2022/01/03 04:29:44;;;;;;;26.27;4.80;;;9.00;99.90;;;;;;4862830;29;20053;-82
2022/01/03 04:32:10;;;;;;;28.83;4.55;;;9.00;99.90;;;;;;4889567;29;20049;-82
2022/01/03 04:34:36;;;;;;;28.95;3.85;;;8.90;99.90;;;;;;4866943;29;20172;-83
2022/01/03 04:37:02;;;;;;;26.65;4.20;;;9.00;99.90;;;;;;4893427;29;20052;-82
2022/01/03 04:39:28;;;;;;;31.60;3.83;;;9.00;99.90;;;;;;4893038;29;20335;-84
2022/01/03 04:41:54;;;;;;;21.10;3.05;;;9.00;99.90;;;;;;4896256;29;20044;-82
2022/01/03 04:44:19;;;;;;;22.55;3.60;;;8.90;99.90;;;;;;4848359;29;20107;-83
2022/01/03 04:46:45;;;;;;;18.95;3.92;;;9.00;99.90;;;;;;4897981;29;20088;-84
2022/01/03 04:49:11;;;;;;;31.52;5.13;;;8.90;99.90;;;;;;4863454;29;20059;-83
2022/01/03 04:51:39;;;;;;;19.50;3.35;;;8.90;99.90;;;;;;4877936;29;20044;-82
2022/01/03 04:54:05;;;;;;;26.45;4.68;;;9.00;99.90;;;;;;4892999;29;20144;-83
2022/01/03 04:56:33;;;;;;;24.63;3.92;;;9.00;99.90;;;;;;4893437;29;20448;-83
2022/01/03 04:58:59;;;;;;;15.90;3.95;;;9.00;99.90;;;;;;4876734;29;20049;-85
2022/01/03 05:01:25;;;;;;;22.42;3.88;;;9.00;99.90;;;;;;4891337;29;20094;-82
2022/01/03 05:03:52;;;;;;;24.85;3.90;;;9.00;99.90;;;;;;4878244;29;20072;-83
2022/01/03 05:06:19;;;;;;;23.65;3.92;;;9.00;99.90;;;;;;4892918;29;20058;-83
2022/01/03 05:08:45;;;;;;;30.63;4.68;;;9.10;99.90;;;;;;4878153;29;20139;-82
2022/01/03 05:11:11;;;;;;;16.08;3.17;;;9.10;99.90;;;;;;4877634;29;20112;-82
2022/01/03 05:13:37;;;;;;;29.92;4.05;;;9.00;99.90;;;;;;4891424;29;20048;-82
2022/01/03 05:16:03;;;;;;;28.60;4.63;;;9.00;99.90;;;;;;4892905;29;20060;-85
2022/01/03 05:18:29;;;;;;;24.92;4.90;;;9.00;99.90;;;;;;4893115;29;20044;-82
2022/01/03 05:20:56;;;;;;;33.63;5.15;;;9.10;99.90;;;;;;4878032;29;20064;-82
2022/01/03 05:23:22;;;;;;;25.73;3.97;;;9.10;99.90;;;;;;4892909;29;20072;-82
2022/01/03 05:25:48;;;;;;;30.25;5.60;;;9.10;99.90;;;;;;4877439;29;20063;-82
2022/01/03 05:28:14;;;;;;;32.55;4.43;;;9.10;99.90;;;;;;4892610;29;20060;-82
2022/01/03 05:30:40;;;;;;;24.92;3.75;;;9.10;99.90;;;;;;4893076;29;20045;-82
2022/01/03 05:33:06;;;;;;;26.02;3.92;;;9.10;99.90;;;;;;4892025;29;20111;-84
2022/01/03 05:35:31;;;;;;;26.00;3.88;;;9.10;99.90;;;;;;4881676;29;20052;-82
2022/01/03 05:37:57;;;;;;;29.83;3.85;;;9.00;99.90;;;;;;4896580;29;20059;-82
2022/01/03 05:40:24;;;;;;;31.98;4.80;;;9.10;99.90;;;;;;4892197;29;20053;-82
2022/01/03 05:42:50;;;;;;;25.77;4.97;;;9.10;99.90;;;;;;4864640;29;20044;-83
2022/01/03 05:45:16;;;;;;;27.85;4.05;;;9.00;99.90;;;;;;4877133;29;20060;-83
2022/01/03 05:47:45;;;;;;;29.35;4.15;;;9.00;99.90;;;;;;4893978;29;20060;-83
2022/01/03 05:50:12;;;;;;;27.20;4.25;;;9.00;99.90;;;;;;4861777;29;20049;-83
2022/01/03 05:52:37;;;;;;;31.80;3.90;;;9.00;99.90;;;;;;4893384;29;20056;-82
2022/01/03 05:55:04;;;;;;;33.17;4.05;;;9.00;99.90;;;;;;4877055;29;20067;-82
2022/01/03 05:57:30;;;;;;;28.63;4.28;;;9.00;99.90;;;;;;4871708;29;20466;-83
2022/01/03 05:59:55;;;;;;;28.98;5.53;;;9.00;99.90;;;;;;4878889;29;20052;-82
2022/01/03 06:02:22;;;;;;;42.25;4.75;;;9.00;99.90;;;;;;4877037;29;20087;-82
2022/01/03 06:04:57;;;;;;;25.25;3.58;;;8.90;99.90;;;;;;4843789;29;20061;-82
2022/01/03 06:07:23;;;;;;;29.17;3.77;;;8.90;99.90;;;;;;4876487;29;20288;-82
2022/01/03 06:09:50;;;;;;;28.35;4.43;;;8.90;99.90;;;;;;4879747;29;20049;-83
2022/01/03 06:12:17;;;;;;;27.05;4.10;;;8.80;99.90;;;;;;4876885;29;20084;-82
2022/01/03 06:14:44;;;;;;;31.48;4.53;;;8.80;99.90;;;;;;4906502;29;20072;-80
2022/01/03 06:17:10;;;;;;;31.30;5.43;;;8.80;99.90;;;;;;4902124;29;20140;-84
2022/01/03 06:19:36;;;;;;;26.90;4.55;;;8.70;99.90;;;;;;4877162;29;20072;-82
2022/01/03 06:22:04;;;;;;;33.72;5.88;;;8.70;99.90;;;;;;4876281;29;20526;-83
2022/01/03 06:24:30;;;;;;;27.17;4.30;;;8.70;99.90;;;;;;4879964;29;20045;-84
2022/01/03 06:26:56;;;;;;;29.75;4.22;;;8.70;99.90;;;;;;4886879;29;20052;-82
2022/01/03 06:29:22;;;;;;;28.17;4.25;;;8.70;99.90;;;;;;4883779;29;20103;-78
2022/01/03 06:31:48;;;;;;;22.98;3.65;;;8.80;99.90;;;;;;4905861;29;20131;-83
2022/01/03 06:34:16;;;;;;;32.33;5.60;;;8.80;99.90;;;;;;4908293;29;20048;-85
2022/01/03 06:36:41;;;;;;;25.50;3.97;;;8.80;99.90;;;;;;4896638;29;20055;-83
2022/01/03 06:39:09;;;;;;;26.63;3.72;;;8.70;99.90;;;;;;4896861;29;20700;-82
2022/01/03 06:41:36;;;;;;;27.88;4.13;;;8.80;99.90;;;;;;4902217;29;20258;-82
2022/01/03 06:44:02;;;;;;;34.22;4.75;;;8.70;99.90;;;;;;4888517;29;20134;-81
2022/01/03 06:46:28;;;;;;;34.00;4.03;;;8.60;99.90;;;;;;4898317;29;20643;-81
2022/01/03 06:48:54;;;;;;;37.00;4.57;;;8.60;99.90;;;;;;4903776;29;20175;-82
2022/01/03 06:51:20;;;;;;;24.27;3.72;;;8.60;99.90;;;;;;4887799;29;20071;-83
2022/01/03 06:53:46;;;;;;;36.53;4.22;;;8.70;99.90;;;;;;4882882;29;20482;-81
2022/01/03 06:56:11;;;;;;;31.40;4.60;;;8.70;99.90;;;;;;4899711;29;20120;-83
2022/01/03 06:58:38;;;;;;;27.55;3.97;;;8.70;99.90;;;;;;4893310;29;20036;-84
2022/01/03 07:01:04;;;;;;;22.95;4.20;;;8.80;99.90;;;;;;4889477;29;20407;-83
2022/01/03 07:03:30;;;;;;;36.25;4.30;;;8.80;99.90;;;;;;4881043;29;20139;-83
2022/01/03 07:05:56;;;;;;;32.30;4.88;;;8.80;99.90;;;;;;4897788;29;20143;-82
2022/01/03 07:08:22;;;;;;;32.10;5.15;;;8.80;99.90;;;;;;4897288;29;20068;-82
2022/01/03 07:10:49;;;;;;;32.78;4.75;;;8.90;99.90;;;;;;4907566;29;20055;-82
2022/01/03 07:13:15;;;;;;;33.65;3.78;;;8.90;99.90;;;;;;4899020;29;20059;-81
2022/01/03 07:21:10;;;;;;;37.55;4.68;;;9.00;99.90;;;;;;4901344;29;20052;-82
2022/01/03 07:23:36;;;;;;;30.25;4.38;;;9.00;99.90;;;;;;4898514;29;20059;-82
2022/01/03 07:26:02;;;;;;;37.88;4.90;;;9.00;99.90;;;;;;4914273;29;20056;-83
2022/01/03 07:28:28;;;;;;;29.17;4.03;;;9.00;99.90;;;;;;4886901;29;20056;-82
2022/01/03 07:30:53;;;;;;;22.42;4.55;;;8.90;99.90;;;;;;4863768;29;20055;-81
2022/01/03 07:33:19;;;;;;;30.80;4.90;;;8.90;99.90;;;;;;4884480;29;20047;-84
2022/01/03 07:35:45;;;;;;;27.05;3.67;;;8.80;99.90;;;;;;4891061;29;20056;-80
2022/01/03 07:38:10;;;;;;;21.77;3.88;;;8.90;99.90;;;;;;4876599;29;20067;-81
2022/01/03 07:40:36;;;;;;;28.77;4.03;;;8.90;99.90;;;;;;4889682;29;20659;-82
2022/01/03 07:43:02;;;;;;;39.90;4.90;;;8.90;99.90;;;;;;4897733;29;20044;-81
2022/01/03 07:45:28;;;;;;;25.60;4.93;;;8.90;99.90;;;;;;4882260;29;20048;-81
2022/01/03 07:47:54;;;;;;;21.98;3.78;;;9.00;99.90;;;;;;4898129;29;20104;-81
2022/01/03 07:50:20;;;;;;;21.02;3.92;;;9.00;99.90;;;;;;4882252;29;20056;-84
2022/01/03 07:52:46;;;;;;;32.00;5.18;;;9.00;99.90;;;;;;4897254;29;20104;-82
2022/01/03 07:55:13;;;;;;;35.70;5.38;;;9.00;99.90;;;;;;4882829;29;20402;-82
2022/01/03 07:57:39;;;;;;;28.00;4.63;;;9.00;99.90;;;;;;4881180;29;20044;-81
2022/01/03 08:00:08;;;;;;;31.52;4.93;;;9.00;99.90;;;;;;4898110;29;20056;-82
2022/01/03 08:02:33;;;;;;;28.67;5.05;;;9.00;99.90;;;;;;4898687;29;20056;-82
2022/01/03 08:04:59;;;;;;;27.85;3.67;;;9.00;99.90;;;;;;4896423;29;20810;-81
2022/01/03 08:07:25;;;;;;;25.65;4.65;;;9.10;99.90;;;;;;4911036;29;20064;-81
2022/01/03 08:09:51;;;;;;;36.45;6.43;;;9.10;99.90;;;;;;4898503;29;20055;-81
2022/01/03 08:12:17;;;;;;;27.67;5.00;;;9.20;99.90;;;;;;4899990;29;20482;-82
2022/01/03 08:14:44;;;;;;;33.95;4.13;;;9.10;99.90;;;;;;4881908;29;20070;-81
2022/01/03 08:17:10;;;;;;;24.67;5.32;;;9.20;99.90;;;;;;4885021;29;20497;-82
2022/01/03 08:19:35;;;;;;;34.90;5.43;;;9.20;99.90;;;;;;4897535;29;20048;-82
2022/01/03 08:22:01;;;;;;;30.17;4.50;;;9.20;99.90;;;;;;4913913;29;20118;-82
2022/01/03 08:24:27;;;;;;;25.75;4.05;;;9.20;99.90;;;;;;4884806;29;20083;-82
2022/01/03 08:26:54;;;;;;;20.70;3.28;;;9.20;99.90;;;;;;4899441;29;20060;-82
2022/01/03 08:29:20;;;;;;;26.17;4.75;;;9.20;99.90;;;;;;4892117;29;20071;-82
2022/01/03 08:31:46;;;;;;;32.80;4.20;;;9.30;99.90;;;;;;4883970;29;20048;-81
2022/01/03 08:34:12;;;;;;;31.23;4.75;;;9.20;99.90;;;;;;4896940;29;20407;-81
2022/01/03 08:36:38;;;;;;;26.38;4.45;;;9.30;99.90;;;;;;4896057;29;20070;-81
2022/01/03 08:39:04;;;;;;;28.50;3.20;;;9.40;99.90;;;;;;4882967;29;20048;-82
2022/01/03 08:41:30;;;;;;;24.90;5.18;;;9.30;99.90;;;;;;4900213;29;20063;-81
2022/01/03 08:43:55;;;;;;;19.33;3.00;;;9.40;99.90;;;;;;4897305;29;20414;-80
2022/01/03 08:46:23;;;;;;;22.88;4.32;;;9.40;99.90;;;;;;4897057;29;20395;-82
2022/01/03 08:48:52;;;;;;;27.52;4.32;;;9.50;99.90;;;;;;4886316;29;20701;-81
2022/01/03 08:51:18;;;;;;;20.77;4.78;;;9.50;99.90;;;;;;4890799;29;20055;-82
2022/01/03 08:53:43;;;;;;;22.20;4.38;;;9.50;99.90;;;;;;4886958;29;20059;-82
2022/01/03 08:56:09;;;;;;;26.63;3.97;;;9.50;99.90;;;;;;4885932;29;20407;-82
2022/01/03 08:58:35;;;;;;;27.45;4.47;;;9.50;99.90;;;;;;4847080;29;20506;-82
2022/01/03 09:01:01;;;;;;;25.75;3.25;;;9.50;99.90;;;;;;4879834;29;20060;-82
2022/01/03 09:03:27;;;;;;;23.48;4.57;;;9.50;99.90;;;;;;4895785;29;20490;-81
2022/01/03 09:05:54;;;;;;;31.70;4.00;;;9.50;99.90;;;;;;4897639;29;20060;-82
2022/01/03 09:08:22;;;;;;;19.05;3.30;;;9.50;99.90;;;;;;4896293;29;20497;-82
2022/01/03 09:10:49;;;;;;;20.25;2.88;;;9.60;99.90;;;;;;4896361;29;20078;-81
2022/01/03 09:13:15;;;;;;;22.77;3.53;;;9.60;99.90;;;;;;4896834;29;20044;-82
2022/01/03 09:15:44;;;;;;;22.35;3.38;;;9.70;99.90;;;;;;4895554;29;20059;-81
2022/01/03 09:18:11;;;;;;;28.67;5.22;;;9.70;99.90;;;;;;4897895;29;20072;-82
2022/01/03 09:20:37;;;;;;;36.05;4.75;;;9.70;99.90;;;;;;4880570;29;20391;-82
2022/01/03 09:23:10;;;;;;;19.48;3.35;;;9.70;99.90;;;;;;4896539;29;20060;-82
2022/01/03 09:30:48;;;;;;;29.83;5.25;;;9.60;99.90;;;;;;4895623;29;20135;-82
2022/01/03 09:33:14;;;;;;;26.98;3.33;;;9.70;99.90;;;;;;4887678;29;20619;-81
2022/01/03 09:35:41;;;;;;;25.55;4.15;;;9.60;99.90;;;;;;4886736;29;20079;-81
2022/01/03 09:38:07;;;;;;;22.50;3.47;;;9.60;99.90;;;;;;4896557;29;20048;-81
2022/01/03 09:40:34;;;;;;;18.98;3.33;;;9.70;99.90;;;;;;4902803;29;20067;-83
2022/01/03 09:43:02;;;;;;;29.20;4.55;;;9.70;99.90;;;;;;4895703;29;20107;-82
2022/01/03 09:45:32;;;;;;;17.00;2.58;;;9.60;99.90;;;;;;4881047;29;20044;-82
2022/01/03 09:47:59;;;;;;;26.13;6.18;;;9.70;99.90;;;;;;4880507;29;20048;-81
2022/01/03 09:50:25;;;;;;;22.73;3.78;;;9.70;99.90;;;;;;4901771;29;21106;-81
2022/01/03 09:52:51;;;;;;;31.13;3.60;;;9.70;99.90;;;;;;4894722;29;20056;-82
2022/01/03 09:55:21;;;;;;;20.88;3.38;;;9.70;99.90;;;;;;4881050;29;20092;-81
2022/01/03 09:57:47;;;;;;;24.30;3.53;;;9.70;99.90;;;;;;4906296;29;20402;-82
2022/01/03 10:00:22;;;;;;;32.80;4.15;;;9.70;99.90;;;;;;4890324;29;20103;-81
2022/01/03 10:02:49;;;;;;;17.13;3.17;;;9.70;99.90;;;;;;4898646;29;20521;-81
2022/01/03 10:05:15;;;;;;;24.55;4.35;;;9.80;99.90;;;;;;4903413;29;20055;-81
2022/01/03 10:07:40;;;;;;;32.50;4.10;;;9.80;99.90;;;;;;4869573;29;20118;-81
2022/01/03 10:10:08;;;;;;;21.48;3.80;;;9.80;99.90;;;;;;4883549;29;20505;-81
2022/01/03 10:12:35;;;;;;;30.75;3.95;;;9.70;99.90;;;;;;4866957;29;20514;-80
2022/01/03 10:15:02;;;;;;;28.52;4.40;;;9.70;99.90;;;;;;4884457;29;20056;-81
2022/01/03 10:17:27;;;;;;;27.10;3.75;;;9.70;99.90;;;;;;4884689;29;20059;-82
2022/01/03 10:20:02;;;;;;;19.77;3.38;;;9.80;99.90;;;;;;4886865;29;20071;-82
2022/01/03 10:22:36;;;;;;;29.52;4.63;;;9.80;99.90;;;;;;4896969;29;20131;-82
2022/01/03 10:25:14;;;;;;;26.45;4.05;;;9.70;99.90;;;;;;4890132;29;20055;-81
2022/01/03 10:27:51;;;;;;;31.42;4.15;;;9.70;99.90;;;;;;4885165;29;20648;-84
2022/01/03 10:30:40;;;;;;;29.80;4.45;;;9.70;99.90;;;;;;4881366;29;20095;-82
2022/01/03 10:33:09;;;;;;;30.33;4.10;;;9.70;99.90;;;;;;4900044;29;20130;-81
2022/01/03 10:35:40;;;;;;;21.48;3.10;;;9.70;99.90;;;;;;4910209;29;20048;-82
2022/01/03 10:38:06;;;;;;;19.40;2.85;;;9.70;99.90;;;;;;4901516;29;20055;-81
2022/01/03 10:40:33;;;;;;;19.70;3.15;;;9.70;99.90;;;;;;4869593;29;20059;-81
2022/01/03 10:43:33;;;;;;;22.00;3.55;;;9.70;99.90;;;;;;4867546;29;20060;-82
2022/01/03 10:46:00;;;;;;;30.75;4.32;;;9.80;99.90;;;;;;4865052;29;20873;-82
2022/01/03 10:48:34;;;;;;;16.70;3.78;;;9.80;99.90;;;;;;4883200;29;20040;-81
2022/01/03 10:51:02;;;;;;;24.00;4.07;;;9.90;99.90;;;;;;4898903;29;20900;-82
2022/01/03 10:53:42;;;;;;;16.27;3.10;;;10.00;99.90;;;;;;4908274;29;20158;-82
2022/01/03 10:56:26;;;;;;;20.70;3.45;;;10.10;99.90;;;;;;4883210;29;20052;-82
2022/01/03 10:58:52;;;;;;;20.35;3.50;;;10.00;99.90;;;;;;4883601;29;20056;-81
2022/01/03 11:01:23;;;;;;;18.30;3.60;;;10.10;99.90;;;;;;4885879;29;20051;-82
2022/01/03 11:03:50;;;;;;;26.35;3.53;;;10.10;99.90;;;;;;4891638;29;20150;-83
2022/01/03 11:11:58;;;;;;;12.88;2.58;;;10.00;99.90;;;;;;4913030;29;20139;-81
2022/01/03 11:14:39;;;;;;;20.42;4.25;;;10.10;99.90;;;;;;4907306;29;20075;-80
2022/01/03 11:17:25;;;;;;;27.77;3.47;;;10.00;99.90;;;;;;4891787;29;20087;-82
2022/01/03 11:19:51;;;;;;;16.73;2.83;;;10.00;99.90;;;;;;4881345;29;20044;-82
2022/01/03 11:22:45;;;;;;;26.50;4.53;;;10.00;99.90;;;;;;4885826;29;20060;-81
2022/01/03 11:25:12;;;;;;;34.88;4.43;;;10.00;99.90;;;;;;4900084;29;20060;-79
2022/01/03 11:27:40;;;;;;;25.83;3.47;;;10.10;99.90;;;;;;4877120;29;20118;-80
2022/01/03 11:30:11;;;;;;;25.40;4.18;;;10.20;99.90;;;;;;4882327;29;20047;-80
2022/01/03 11:32:43;;;;;;;18.00;3.03;;;10.30;99.90;;;;;;4895653;29;20064;-81
2022/01/03 11:35:09;;;;;;;19.83;3.97;;;10.30;99.90;;;;;;4897296;29;20051;-81
2022/01/03 11:37:39;;;;;;;23.27;4.50;;;10.30;99.90;;;;;;4897999;29;20048;-80
2022/01/03 11:40:06;;;;;;;25.67;4.45;;;10.30;99.90;;;;;;4896527;29;20056;-82
2022/01/03 11:42:32;;;;;;;22.23;2.72;;;10.30;99.90;;;;;;4878377;29;20568;-79
2022/01/03 11:44:59;;;;;;;18.63;3.40;;;10.30;99.90;;;;;;4899504;29;20063;-82
2022/01/03 11:47:28;;;;;;;21.80;2.88;;;10.30;99.90;;;;;;4900904;29;20093;-81
2022/01/03 11:49:54;;;;;;;21.00;3.50;;;10.30;99.90;;;;;;4895225;29;20111;-81
2022/01/03 11:52:21;;;;;;;24.13;2.80;;;10.30;99.90;;;;;;4882228;29;20510;-80
2022/01/03 11:54:48;;;;;;;22.88;3.88;;;10.30;99.90;;;;;;4882472;29;20498;-81
2022/01/03 11:57:35;;;;;;;15.57;2.97;;;10.40;99.90;;;;;;4881970;29;20064;-80
2022/01/03 12:05:46;;;;;;;15.50;3.28;;;10.40;99.90;;;;;;4898040;29;20135;-80
2022/01/03 12:08:23;;;;;;;20.05;3.72;;;10.50;99.90;;;;;;4897056;29;20148;-79
2022/01/03 12:10:48;;;;;;;21.45;3.60;;;10.50;99.90;;;;;;4881899;29;20087;-80
2022/01/03 12:13:14;;;;;;;29.95;3.25;;;10.40;99.90;;;;;;4884935;29;20078;-80
2022/01/03 12:15:42;;;;;;;24.70;3.90;;;10.40;99.90;;;;;;4903335;29;20076;-81
2022/01/03 12:18:29;;;;;;;26.40;4.63;;;10.40;99.90;;;;;;4881736;29;20048;-82
2022/01/03 12:20:55;;;;;;;22.98;3.75;;;10.50;99.90;;;;;;4896933;29;20064;-81
2022/01/03 12:23:41;;;;;;;23.67;5.03;;;10.60;99.90;;;;;;4896145;29;20142;-81
2022/01/03 12:26:13;;;;;;;16.92;2.28;;;10.60;99.90;;;;;;4887592;29;20071;-80
2022/01/03 12:29:06;;;;;;;17.10;3.40;;;10.60;99.90;;;;;;4896176;29;20056;-81
2022/01/03 12:32:01;;;;;;;14.43;2.65;;;10.70;99.90;;;;;;4894973;29;20151;-81
2022/01/03 12:34:26;;;;;;;19.38;2.88;;;10.60;99.90;;;;;;4893183;29;20116;-81
2022/01/03 12:37:15;;;;;;;20.85;4.28;;;10.60;99.90;;;;;;4881421;29;20048;-81
2022/01/03 12:40:03;;;;;;;21.00;3.92;;;10.60;99.90;;;;;;4882026;29;20055;-81
2022/01/03 12:42:54;;;;;;;27.42;3.25;;;10.60;99.90;;;;;;4881652;29;20060;-80
2022/01/03 12:45:32;;;;;;;30.55;4.05;;;10.70;99.90;;;;;;4880767;29;20055;-81
2022/01/03 12:50:39;;;;;;;28.13;3.63;;;10.70;99.90;;;;;;4891514;29;20107;-81
2022/01/03 12:53:07;;;;;;;28.83;3.70;;;10.70;99.90;;;;;;4905750;29;20118;-81
2022/01/03 12:55:42;;;;;;;22.15;3.55;;;10.70;99.90;;;;;;4896531;29;20063;-80
2022/01/03 12:58:14;;;;;;;22.70;3.15;;;10.70;99.90;;;;;;4893237;29;20086;-81
2022/01/03 13:00:48;;;;;;;21.50;3.40;;;10.60;99.90;;;;;;4896421;29;20139;-80
2022/01/03 13:03:38;;;;;;;18.48;3.00;;;10.50;99.90;;;;;;4883234;29;20059;-81
2022/01/03 13:06:15;;;;;;;25.40;4.40;;;10.40;99.90;;;;;;4892918;29;20059;-80
2022/01/03 13:08:59;;;;;;;19.23;2.97;;;10.40;99.90;;;;;;4912197;29;20111;-81
2022/01/03 13:11:26;;;;;;;23.77;2.90;;;10.40;99.90;;;;;;4880831;29;20048;-81
2022/01/03 13:13:56;;;;;;;25.52;4.05;;;10.50;99.90;;;;;;4880838;29;20048;-80
2022/01/03 13:16:23;;;;;;;31.00;4.15;;;10.50;99.90;;;;;;4895261;29;20110;-80
2022/01/03 13:18:51;;;;;;;24.67;3.40;;;10.50;99.90;;;;;;4893529;29;20040;-81